Hovedside
METAR-TAF:

METAR-TAF

Lufthavner :

Chengdu Shuangliu internasjonale lufthavn

Chengdu, Kina

breddegrad: 30-40N, lengdegrad: 104-01E, høyde over havet: 508 m

Gjeldene værobservasjon

Denne rapporten ble laget for 25 minutter siden, klokken 17:00 UTC
Flau vind
Temperatur 26°C
Luftfuktighet 89%
Trykk 1004 hPa
Sikt: 8000 m
Få skyer i en høyde av 5000 ft

METAR: ZUUU 231700Z 00000MPS 8000 FEW050 26/24 Q1004 NOSIG

Tid: 01:25 (17:25 UTC)

Varsel

Denne rapporten ble laget for 9 timer og 12 minutter siden, klokken 08:13 UTC
Varsel gyldig fra 23. klokken 12 UTC til 24. klokken 12 UTC
Vind 6 kt fra Sør-sørvest
Sikt: 5000 m
Spredte skyer i en høyde av 5000 ft
dis
Midlertidig
fra 23. klokken 14 UTC til 23. klokken 16 UTC
Få skyer i en høyde av 3000 ft, Bygeskyer.
Spredte skyer i en høyde av 3000 ft
torden, lett regn

TAF: ZUUU 230813Z 2312/2412 20003MPS 5000 BR SCT050 TX35/2407Z TN25/2322Z TEMPO 2314/2316 -TSRA FEW030CB SCT030

Værobservasjoner og værvarsel for over 4000 flyplasser (METAR- og TAF-rapporter).

Tilgjengelige stasjoner er representert av de røde og gule prikkene på kartet.

Hold musepekeren over prikken for å se navnet på stasjonen.

Klikk så for å se værobservasjoner og -varsler.

For å forandre kartet kan du klikke på den grønne knappen med svart kryss for å zoome inn, på den grønne knappen med strek for å zoome ut, eller på de grønne pilene for å se tilstøtende kart.


METAR-TAF: